This is the latest recevied weather packets stored in our database for station/object EA2BK-11. If no packets are shown the sender has not sent any weather packets the latest 10 day(s).
| Time | Temp. | Humidity | Pressure | Rain* | Wind** | Luminosity | Snow |
|---|---|---|---|---|---|---|---|
| 1777145646 | 23.89° C | 39% | 948 hPa | - | - | - | - |
| 1777144741 | 23.89° C | 39% | 948 hPa | - | - | - | - |
| 1777143836 | 24.44° C | 38% | 948 hPa | - | - | - | - |
| 1777142931 | 25° C | 37% | 948 hPa | - | - | - | - |
| 1777142026 | 25.56° C | 35% | 947 hPa | - | - | - | - |
| 1777141121 | 26.67° C | 32% | 947 hPa | - | - | - | - |
| 1777140215 | 28.89° C | 28% | 947 hPa | - | - | - | - |
| 1777139310 | 31.11° C | 25% | 947 hPa | - | - | - | - |
| 1777138405 | 32.22° C | 23% | 947 hPa | - | - | - | - |
| 1777137500 | 33.89° C | 21% | 947 hPa | - | - | - | - |
| 1777136595 | 33.89° C | 21% | 947 hPa | - | - | - | - |
| 1777135689 | 36.11° C | 18% | 947 hPa | - | - | - | - |
| 1777134785 | 36.11° C | 19% | 947 hPa | - | - | - | - |
| 1777133879 | 38.33° C | 17% | 947 hPa | - | - | - | - |
| 1777132974 | 39.44° C | 16% | 947 hPa | - | - | - | - |
| 1777132069 | 38.33° C | 16% | 947 hPa | - | - | - | - |
| 1777131164 | 39.44° C | 16% | 947 hPa | - | - | - | - |
| 1777130258 | 37.22° C | 18% | 947 hPa | - | - | - | - |
| 1777129353 | 35° C | 21% | 947 hPa | - | - | - | - |
| 1777129024 | 36.11° C | 20% | 947 hPa | - | - | - | - |
| 1777128119 | 35° C | 22% | 947 hPa | - | - | - | - |
| 1777127214 | 33.89° C | 23% | 947 hPa | - | - | - | - |
| 1777126308 | 33.33° C | 24% | 948 hPa | - | - | - | - |
| 1777125403 | 35° C | 23% | 948 hPa | - | - | - | - |
| 1777124498 | 34.44° C | 23% | 948 hPa | - | - | - | - |
* Rain since midnight (hover to see other rain measurements)
** Current wind speed in m/s (hover to see current wind gust speed)